sensor_id;sensor_type;location;lat;lon;timestamp;P1;durP1;ratioP1;P2;durP2;ratioP2
19024;SDS011;9645;51.448;6.260;2022-12-16T00:00:29;100.00;;;26.58;;
19024;SDS011;9645;51.448;6.260;2022-12-16T00:02:57;108.97;;;30.77;;
19024;SDS011;9645;51.448;6.260;2022-12-16T00:05:25;89.50;;;25.00;;
19024;SDS011;9645;51.448;6.260;2022-12-16T00:07:53;115.43;;;25.85;;
19024;SDS011;9645;51.448;6.260;2022-12-16T00:10:20;109.57;;;26.13;;
19024;SDS011;9645;51.448;6.260;2022-12-16T00:12:47;95.70;;;25.33;;
19024;SDS011;9645;51.448;6.260;2022-12-16T00:15:16;89.43;;;24.88;;
19024;SDS011;9645;51.448;6.260;2022-12-16T00:17:43;113.07;;;28.10;;
19024;SDS011;9645;51.448;6.260;2022-12-16T00:20:10;93.20;;;23.88;;
19024;SDS011;9645;51.448;6.260;2022-12-16T00:22:37;105.45;;;27.50;;
19024;SDS011;9645;51.448;6.260;2022-12-16T00:25:05;87.15;;;24.30;;
19024;SDS011;9645;51.448;6.260;2022-12-16T00:27:33;83.80;;;25.38;;
19024;SDS011;9645;51.448;6.260;2022-12-16T00:30:00;111.43;;;25.73;;
19024;SDS011;9645;51.448;6.260;2022-12-16T00:32:28;125.13;;;27.58;;
19024;SDS011;9645;51.448;6.260;2022-12-16T00:34:55;96.82;;;25.20;;
19024;SDS011;9645;51.448;6.260;2022-12-16T00:37:22;111.43;;;30.55;;
19024;SDS011;9645;51.448;6.260;2022-12-16T00:39:49;89.93;;;25.83;;
19024;SDS011;9645;51.448;6.260;2022-12-16T00:42:16;111.93;;;27.58;;
19024;SDS011;9645;51.448;6.260;2022-12-16T00:44:43;86.43;;;26.88;;
19024;SDS011;9645;51.448;6.260;2022-12-16T00:47:10;98.00;;;26.88;;
19024;SDS011;9645;51.448;6.260;2022-12-16T00:49:39;102.03;;;28.80;;
19024;SDS011;9645;51.448;6.260;2022-12-16T00:52:06;115.10;;;27.40;;
19024;SDS011;9645;51.448;6.260;2022-12-16T00:54:32;109.85;;;27.60;;
19024;SDS011;9645;51.448;6.260;2022-12-16T00:57:00;98.55;;;26.35;;
19024;SDS011;9645;51.448;6.260;2022-12-16T00:59:28;90.25;;;26.23;;
19024;SDS011;9645;51.448;6.260;2022-12-16T01:01:54;102.90;;;28.05;;
19024;SDS011;9645;51.448;6.260;2022-12-16T01:04:22;101.13;;;28.13;;
19024;SDS011;9645;51.448;6.260;2022-12-16T01:06:52;96.35;;;25.40;;
19024;SDS011;9645;51.448;6.260;2022-12-16T01:09:19;94.80;;;27.63;;
19024;SDS011;9645;51.448;6.260;2022-12-16T01:11:46;91.25;;;27.67;;
19024;SDS011;9645;51.448;6.260;2022-12-16T01:14:13;113.93;;;31.13;;
19024;SDS011;9645;51.448;6.260;2022-12-16T01:16:41;106.30;;;29.15;;
19024;SDS011;9645;51.448;6.260;2022-12-16T01:19:10;115.28;;;30.33;;
19024;SDS011;9645;51.448;6.260;2022-12-16T01:21:37;125.50;;;29.30;;
19024;SDS011;9645;51.448;6.260;2022-12-16T01:24:05;99.80;;;30.00;;
19024;SDS011;9645;51.448;6.260;2022-12-16T01:26:32;124.15;;;29.20;;
19024;SDS011;9645;51.448;6.260;2022-12-16T01:28:59;108.53;;;29.42;;
19024;SDS011;9645;51.448;6.260;2022-12-16T01:31:27;109.40;;;27.80;;
19024;SDS011;9645;51.448;6.260;2022-12-16T01:33:54;111.20;;;28.75;;
19024;SDS011;9645;51.448;6.260;2022-12-16T01:36:21;131.63;;;29.17;;
19024;SDS011;9645;51.448;6.260;2022-12-16T01:38:48;109.30;;;29.77;;
19024;SDS011;9645;51.448;6.260;2022-12-16T01:41:17;99.43;;;27.05;;
19024;SDS011;9645;51.448;6.260;2022-12-16T01:43:44;112.28;;;28.85;;
19024;SDS011;9645;51.448;6.260;2022-12-16T01:46:14;93.97;;;26.98;;
19024;SDS011;9645;51.448;6.260;2022-12-16T01:48:45;105.55;;;27.20;;
19024;SDS011;9645;51.448;6.260;2022-12-16T01:51:15;121.70;;;28.02;;
19024;SDS011;9645;51.448;6.260;2022-12-16T01:53:47;105.50;;;29.20;;
19024;SDS011;9645;51.448;6.260;2022-12-16T01:56:17;112.00;;;29.38;;
19024;SDS011;9645;51.448;6.260;2022-12-16T01:58:48;126.05;;;30.15;;
19024;SDS011;9645;51.448;6.260;2022-12-16T02:01:17;93.65;;;25.35;;
19024;SDS011;9645;51.448;6.260;2022-12-16T02:03:44;117.10;;;28.98;;
19024;SDS011;9645;51.448;6.260;2022-12-16T02:06:12;115.70;;;29.35;;
19024;SDS011;9645;51.448;6.260;2022-12-16T02:08:39;118.47;;;28.60;;
19024;SDS011;9645;51.448;6.260;2022-12-16T02:14:13;82.13;;;24.83;;
19024;SDS011;9645;51.448;6.260;2022-12-16T02:16:54;85.10;;;24.27;;
19024;SDS011;9645;51.448;6.260;2022-12-16T02:19:34;106.45;;;28.23;;
19024;SDS011;9645;51.448;6.260;2022-12-16T02:22:43;104.72;;;26.58;;
19024;SDS011;9645;51.448;6.260;2022-12-16T02:25:31;89.43;;;26.55;;
19024;SDS011;9645;51.448;6.260;2022-12-16T02:28:21;97.63;;;24.60;;
19024;SDS011;9645;51.448;6.260;2022-12-16T02:31:09;100.65;;;26.70;;
19024;SDS011;9645;51.448;6.260;2022-12-16T02:33:51;105.15;;;26.15;;
19024;SDS011;9645;51.448;6.260;2022-12-16T02:36:41;94.53;;;26.45;;
19024;SDS011;9645;51.448;6.260;2022-12-16T02:39:17;102.03;;;24.67;;
19024;SDS011;9645;51.448;6.260;2022-12-16T02:41:49;92.85;;;24.38;;
19024;SDS011;9645;51.448;6.260;2022-12-16T02:44:23;106.15;;;26.33;;
19024;SDS011;9645;51.448;6.260;2022-12-16T02:46:56;89.03;;;24.35;;
19024;SDS011;9645;51.448;6.260;2022-12-16T02:52:12;92.57;;;26.08;;
19024;SDS011;9645;51.448;6.260;2022-12-16T02:54:41;104.10;;;23.27;;
19024;SDS011;9645;51.448;6.260;2022-12-16T02:57:11;83.88;;;23.08;;
19024;SDS011;9645;51.448;6.260;2022-12-16T02:59:51;83.20;;;23.50;;
19024;SDS011;9645;51.448;6.260;2022-12-16T03:02:26;80.78;;;22.08;;
19024;SDS011;9645;51.448;6.260;2022-12-16T03:04:58;81.35;;;22.77;;
19024;SDS011;9645;51.448;6.260;2022-12-16T03:07:32;80.28;;;22.48;;
19024;SDS011;9645;51.448;6.260;2022-12-16T03:10:01;76.47;;;22.48;;
19024;SDS011;9645;51.448;6.260;2022-12-16T03:12:31;82.32;;;22.98;;
19024;SDS011;9645;51.448;6.260;2022-12-16T03:15:00;86.22;;;21.85;;
19024;SDS011;9645;51.448;6.260;2022-12-16T03:17:33;80.80;;;22.90;;
19024;SDS011;9645;51.448;6.260;2022-12-16T03:20:04;68.60;;;19.98;;
19024;SDS011;9645;51.448;6.260;2022-12-16T03:22:39;77.85;;;22.23;;
19024;SDS011;9645;51.448;6.260;2022-12-16T03:25:12;90.88;;;23.35;;
19024;SDS011;9645;51.448;6.260;2022-12-16T03:27:40;70.50;;;21.38;;
19024;SDS011;9645;51.448;6.260;2022-12-16T03:30:16;72.43;;;21.27;;
19024;SDS011;9645;51.448;6.260;2022-12-16T03:32:50;92.55;;;21.25;;
19024;SDS011;9645;51.448;6.260;2022-12-16T03:35:24;79.28;;;19.38;;
19024;SDS011;9645;51.448;6.260;2022-12-16T03:37:54;79.13;;;20.70;;
19024;SDS011;9645;51.448;6.260;2022-12-16T03:40:23;65.82;;;20.23;;
19024;SDS011;9645;51.448;6.260;2022-12-16T03:42:52;76.88;;;21.85;;
19024;SDS011;9645;51.448;6.260;2022-12-16T03:45:21;73.90;;;21.42;;
19024;SDS011;9645;51.448;6.260;2022-12-16T03:47:55;72.45;;;21.67;;
19024;SDS011;9645;51.448;6.260;2022-12-16T03:50:27;69.68;;;20.33;;
19024;SDS011;9645;51.448;6.260;2022-12-16T03:52:56;82.65;;;22.10;;
19024;SDS011;9645;51.448;6.260;2022-12-16T03:55:24;80.55;;;22.60;;
19024;SDS011;9645;51.448;6.260;2022-12-16T03:57:51;87.57;;;23.90;;
19024;SDS011;9645;51.448;6.260;2022-12-16T04:00:21;77.10;;;21.05;;
19024;SDS011;9645;51.448;6.260;2022-12-16T04:02:48;63.15;;;20.40;;
19024;SDS011;9645;51.448;6.260;2022-12-16T04:05:17;87.65;;;22.77;;
19024;SDS011;9645;51.448;6.260;2022-12-16T04:07:45;69.90;;;21.10;;
19024;SDS011;9645;51.448;6.260;2022-12-16T04:10:12;63.38;;;19.92;;
19024;SDS011;9645;51.448;6.260;2022-12-16T04:12:39;79.28;;;20.95;;
19024;SDS011;9645;51.448;6.260;2022-12-16T04:15:20;56.53;;;21.73;;
19024;SDS011;9645;51.448;6.260;2022-12-16T04:18:19;68.95;;;19.17;;
19024;SDS011;9645;51.448;6.260;2022-12-16T04:21:10;58.15;;;19.23;;
19024;SDS011;9645;51.448;6.260;2022-12-16T04:23:55;70.05;;;21.02;;
19024;SDS011;9645;51.448;6.260;2022-12-16T04:26:40;57.10;;;17.90;;
19024;SDS011;9645;51.448;6.260;2022-12-16T04:29:22;66.57;;;21.05;;
19024;SDS011;9645;51.448;6.260;2022-12-16T04:31:49;70.95;;;20.60;;
19024;SDS011;9645;51.448;6.260;2022-12-16T04:34:18;56.00;;;18.13;;
19024;SDS011;9645;51.448;6.260;2022-12-16T04:36:52;66.05;;;18.40;;
19024;SDS011;9645;51.448;6.260;2022-12-16T04:39:46;51.50;;;18.63;;
19024;SDS011;9645;51.448;6.260;2022-12-16T04:42:31;85.65;;;21.65;;
19024;SDS011;9645;51.448;6.260;2022-12-16T04:45:16;64.32;;;20.75;;
19024;SDS011;9645;51.448;6.260;2022-12-16T04:48:00;60.80;;;18.73;;
19024;SDS011;9645;51.448;6.260;2022-12-16T04:50:46;61.75;;;20.20;;
19024;SDS011;9645;51.448;6.260;2022-12-16T04:53:32;73.97;;;21.83;;
19024;SDS011;9645;51.448;6.260;2022-12-16T04:56:17;65.72;;;20.70;;
19024;SDS011;9645;51.448;6.260;2022-12-16T04:59:01;58.95;;;20.13;;
19024;SDS011;9645;51.448;6.260;2022-12-16T05:01:45;57.75;;;18.65;;
19024;SDS011;9645;51.448;6.260;2022-12-16T05:04:45;79.00;;;21.75;;
19024;SDS011;9645;51.448;6.260;2022-12-16T05:07:29;74.53;;;19.52;;
19024;SDS011;9645;51.448;6.260;2022-12-16T05:10:15;80.85;;;20.10;;
19024;SDS011;9645;51.448;6.260;2022-12-16T05:13:00;77.30;;;23.17;;
19024;SDS011;9645;51.448;6.260;2022-12-16T05:15:44;79.53;;;25.48;;
19024;SDS011;9645;51.448;6.260;2022-12-16T05:18:29;83.82;;;23.02;;
19024;SDS011;9645;51.448;6.260;2022-12-16T05:21:22;77.20;;;21.48;;
19024;SDS011;9645;51.448;6.260;2022-12-16T05:24:07;84.55;;;22.02;;
19024;SDS011;9645;51.448;6.260;2022-12-16T05:26:53;103.07;;;22.63;;
19024;SDS011;9645;51.448;6.260;2022-12-16T05:29:38;79.07;;;22.25;;
19024;SDS011;9645;51.448;6.260;2022-12-16T05:32:22;97.10;;;23.00;;
19024;SDS011;9645;51.448;6.260;2022-12-16T05:35:06;78.95;;;24.20;;
19024;SDS011;9645;51.448;6.260;2022-12-16T05:37:51;93.53;;;23.30;;
19024;SDS011;9645;51.448;6.260;2022-12-16T05:40:35;91.88;;;21.95;;
19024;SDS011;9645;51.448;6.260;2022-12-16T05:43:21;83.30;;;23.95;;
19024;SDS011;9645;51.448;6.260;2022-12-16T05:46:06;78.07;;;22.65;;
19024;SDS011;9645;51.448;6.260;2022-12-16T05:48:50;89.18;;;22.13;;
19024;SDS011;9645;51.448;6.260;2022-12-16T05:51:35;87.63;;;23.38;;
19024;SDS011;9645;51.448;6.260;2022-12-16T05:54:19;79.45;;;21.38;;
19024;SDS011;9645;51.448;6.260;2022-12-16T05:57:04;72.22;;;20.05;;
19024;SDS011;9645;51.448;6.260;2022-12-16T05:59:50;70.30;;;22.65;;
19024;SDS011;9645;51.448;6.260;2022-12-16T06:02:34;73.15;;;22.48;;
19024;SDS011;9645;51.448;6.260;2022-12-16T06:05:18;73.97;;;21.50;;
19024;SDS011;9645;51.448;6.260;2022-12-16T06:08:03;72.00;;;23.55;;
19024;SDS011;9645;51.448;6.260;2022-12-16T06:10:47;84.72;;;22.45;;
19024;SDS011;9645;51.448;6.260;2022-12-16T06:13:32;80.43;;;23.77;;
19024;SDS011;9645;51.448;6.260;2022-12-16T06:16:19;67.85;;;22.05;;
19024;SDS011;9645;51.448;6.260;2022-12-16T06:19:04;83.97;;;22.83;;
19024;SDS011;9645;51.448;6.260;2022-12-16T06:21:48;92.97;;;24.23;;
19024;SDS011;9645;51.448;6.260;2022-12-16T06:24:32;93.13;;;22.45;;
19024;SDS011;9645;51.448;6.260;2022-12-16T06:27:19;85.15;;;25.08;;
19024;SDS011;9645;51.448;6.260;2022-12-16T06:30:03;87.85;;;24.85;;
19024;SDS011;9645;51.448;6.260;2022-12-16T06:32:50;85.88;;;24.80;;
19024;SDS011;9645;51.448;6.260;2022-12-16T06:35:34;71.15;;;24.13;;
19024;SDS011;9645;51.448;6.260;2022-12-16T06:38:19;93.85;;;25.73;;
19024;SDS011;9645;51.448;6.260;2022-12-16T06:41:03;94.53;;;24.77;;
19024;SDS011;9645;51.448;6.260;2022-12-16T06:43:47;81.13;;;25.08;;
19024;SDS011;9645;51.448;6.260;2022-12-16T06:46:32;80.15;;;24.75;;
19024;SDS011;9645;51.448;6.260;2022-12-16T06:49:29;78.15;;;24.25;;
19024;SDS011;9645;51.448;6.260;2022-12-16T06:52:14;93.57;;;25.00;;
19024;SDS011;9645;51.448;6.260;2022-12-16T06:54:58;70.97;;;24.20;;
19024;SDS011;9645;51.448;6.260;2022-12-16T06:57:43;86.75;;;24.38;;
19024;SDS011;9645;51.448;6.260;2022-12-16T07:00:28;86.20;;;23.90;;
19024;SDS011;9645;51.448;6.260;2022-12-16T07:03:12;81.65;;;23.17;;
19024;SDS011;9645;51.448;6.260;2022-12-16T07:05:58;79.72;;;22.65;;
19024;SDS011;9645;51.448;6.260;2022-12-16T07:08:43;87.40;;;24.13;;
19024;SDS011;9645;51.448;6.260;2022-12-16T07:11:30;71.68;;;22.85;;
19024;SDS011;9645;51.448;6.260;2022-12-16T07:14:16;80.80;;;24.73;;
19024;SDS011;9645;51.448;6.260;2022-12-16T07:17:00;98.25;;;23.42;;
19024;SDS011;9645;51.448;6.260;2022-12-16T07:19:45;86.38;;;24.38;;
19024;SDS011;9645;51.448;6.260;2022-12-16T07:22:31;86.50;;;26.17;;
19024;SDS011;9645;51.448;6.260;2022-12-16T07:25:15;83.95;;;25.08;;
19024;SDS011;9645;51.448;6.260;2022-12-16T07:28:00;84.35;;;24.65;;
19024;SDS011;9645;51.448;6.260;2022-12-16T07:30:44;64.85;;;20.92;;
19024;SDS011;9645;51.448;6.260;2022-12-16T07:33:29;76.57;;;24.10;;
19024;SDS011;9645;51.448;6.260;2022-12-16T07:36:14;82.20;;;22.42;;
19024;SDS011;9645;51.448;6.260;2022-12-16T07:39:01;75.80;;;22.42;;
19024;SDS011;9645;51.448;6.260;2022-12-16T07:41:45;72.85;;;22.90;;
19024;SDS011;9645;51.448;6.260;2022-12-16T07:44:30;79.28;;;24.65;;
19024;SDS011;9645;51.448;6.260;2022-12-16T07:47:14;70.18;;;22.05;;
19024;SDS011;9645;51.448;6.260;2022-12-16T07:49:59;75.38;;;21.27;;
19024;SDS011;9645;51.448;6.260;2022-12-16T07:52:44;74.07;;;23.25;;
19024;SDS011;9645;51.448;6.260;2022-12-16T07:55:30;70.00;;;23.67;;
19024;SDS011;9645;51.448;6.260;2022-12-16T07:58:14;79.22;;;23.73;;
19024;SDS011;9645;51.448;6.260;2022-12-16T08:00:59;83.95;;;25.17;;
19024;SDS011;9645;51.448;6.260;2022-12-16T08:03:43;76.03;;;24.20;;
19024;SDS011;9645;51.448;6.260;2022-12-16T08:06:28;76.60;;;23.13;;
19024;SDS011;9645;51.448;6.260;2022-12-16T08:09:12;89.13;;;24.33;;
19024;SDS011;9645;51.448;6.260;2022-12-16T08:11:58;93.47;;;24.70;;
19024;SDS011;9645;51.448;6.260;2022-12-16T08:14:42;79.43;;;27.20;;
19024;SDS011;9645;51.448;6.260;2022-12-16T08:17:27;84.88;;;25.00;;
19024;SDS011;9645;51.448;6.260;2022-12-16T08:20:12;84.55;;;26.50;;
19024;SDS011;9645;51.448;6.260;2022-12-16T08:23:04;86.70;;;28.92;;
19024;SDS011;9645;51.448;6.260;2022-12-16T08:25:48;114.63;;;30.73;;
19024;SDS011;9645;51.448;6.260;2022-12-16T08:28:35;85.38;;;25.63;;
19024;SDS011;9645;51.448;6.260;2022-12-16T08:31:19;86.88;;;27.77;;
19024;SDS011;9645;51.448;6.260;2022-12-16T08:34:03;83.32;;;26.63;;
19024;SDS011;9645;51.448;6.260;2022-12-16T08:36:48;78.85;;;24.83;;
19024;SDS011;9645;51.448;6.260;2022-12-16T08:39:33;97.72;;;25.70;;
19024;SDS011;9645;51.448;6.260;2022-12-16T08:42:17;74.88;;;24.48;;
19024;SDS011;9645;51.448;6.260;2022-12-16T08:45:03;92.43;;;28.10;;
19024;SDS011;9645;51.448;6.260;2022-12-16T08:47:48;92.70;;;28.00;;
19024;SDS011;9645;51.448;6.260;2022-12-16T08:50:33;84.65;;;23.45;;
19024;SDS011;9645;51.448;6.260;2022-12-16T08:53:17;94.75;;;27.67;;
19024;SDS011;9645;51.448;6.260;2022-12-16T08:56:07;96.07;;;25.90;;
19024;SDS011;9645;51.448;6.260;2022-12-16T08:58:52;99.15;;;29.65;;
19024;SDS011;9645;51.448;6.260;2022-12-16T09:01:37;87.43;;;28.05;;
19024;SDS011;9645;51.448;6.260;2022-12-16T09:04:21;101.60;;;29.08;;
19024;SDS011;9645;51.448;6.260;2022-12-16T09:07:06;110.38;;;30.50;;
19024;SDS011;9645;51.448;6.260;2022-12-16T09:09:50;105.70;;;29.52;;
19024;SDS011;9645;51.448;6.260;2022-12-16T09:12:34;79.95;;;25.60;;
19024;SDS011;9645;51.448;6.260;2022-12-16T09:15:18;101.18;;;28.55;;
19024;SDS011;9645;51.448;6.260;2022-12-16T09:18:04;94.55;;;28.98;;
19024;SDS011;9645;51.448;6.260;2022-12-16T09:20:49;93.50;;;28.60;;
19024;SDS011;9645;51.448;6.260;2022-12-16T09:23:34;87.90;;;27.25;;
19024;SDS011;9645;51.448;6.260;2022-12-16T09:26:19;72.82;;;24.70;;
19024;SDS011;9645;51.448;6.260;2022-12-16T09:29:04;85.72;;;25.95;;
19024;SDS011;9645;51.448;6.260;2022-12-16T09:31:49;78.72;;;26.33;;
19024;SDS011;9645;51.448;6.260;2022-12-16T09:34:35;93.30;;;27.90;;
19024;SDS011;9645;51.448;6.260;2022-12-16T09:37:28;78.30;;;27.00;;
19024;SDS011;9645;51.448;6.260;2022-12-16T09:40:13;84.28;;;27.48;;
19024;SDS011;9645;51.448;6.260;2022-12-16T09:43:00;84.88;;;25.20;;
19024;SDS011;9645;51.448;6.260;2022-12-16T09:45:52;99.00;;;31.38;;
19024;SDS011;9645;51.448;6.260;2022-12-16T09:48:44;94.45;;;30.58;;
19024;SDS011;9645;51.448;6.260;2022-12-16T09:51:38;100.57;;;30.17;;
19024;SDS011;9645;51.448;6.260;2022-12-16T09:54:25;95.10;;;30.85;;
19024;SDS011;9645;51.448;6.260;2022-12-16T09:57:12;92.18;;;31.20;;
19024;SDS011;9645;51.448;6.260;2022-12-16T09:59:59;103.28;;;32.15;;
19024;SDS011;9645;51.448;6.260;2022-12-16T10:02:47;101.43;;;29.75;;
19024;SDS011;9645;51.448;6.260;2022-12-16T10:05:33;107.40;;;31.52;;
19024;SDS011;9645;51.448;6.260;2022-12-16T10:08:29;105.55;;;31.02;;
19024;SDS011;9645;51.448;6.260;2022-12-16T10:11:20;104.15;;;29.27;;
19024;SDS011;9645;51.448;6.260;2022-12-16T10:14:10;96.00;;;29.50;;
19024;SDS011;9645;51.448;6.260;2022-12-16T10:16:59;102.28;;;31.80;;
19024;SDS011;9645;51.448;6.260;2022-12-16T10:19:49;103.07;;;32.63;;
19024;SDS011;9645;51.448;6.260;2022-12-16T10:22:44;103.95;;;30.08;;
19024;SDS011;9645;51.448;6.260;2022-12-16T10:25:37;107.30;;;33.38;;
19024;SDS011;9645;51.448;6.260;2022-12-16T10:28:28;103.45;;;34.10;;
19024;SDS011;9645;51.448;6.260;2022-12-16T10:31:26;120.35;;;34.35;;
19024;SDS011;9645;51.448;6.260;2022-12-16T10:34:12;104.97;;;34.13;;
19024;SDS011;9645;51.448;6.260;2022-12-16T10:36:59;109.40;;;34.28;;
19024;SDS011;9645;51.448;6.260;2022-12-16T10:39:58;123.18;;;32.53;;
19024;SDS011;9645;51.448;6.260;2022-12-16T10:42:47;108.43;;;30.60;;
19024;SDS011;9645;51.448;6.260;2022-12-16T10:45:49;89.13;;;30.65;;
19024;SDS011;9645;51.448;6.260;2022-12-16T10:48:36;93.85;;;30.77;;
19024;SDS011;9645;51.448;6.260;2022-12-16T10:51:22;101.85;;;31.83;;
19024;SDS011;9645;51.448;6.260;2022-12-16T10:54:12;104.72;;;31.15;;
19024;SDS011;9645;51.448;6.260;2022-12-16T10:57:08;107.38;;;30.27;;
19024;SDS011;9645;51.448;6.260;2022-12-16T11:00:08;97.43;;;31.63;;
19024;SDS011;9645;51.448;6.260;2022-12-16T11:02:55;124.57;;;33.15;;
19024;SDS011;9645;51.448;6.260;2022-12-16T11:05:58;117.68;;;31.60;;
19024;SDS011;9645;51.448;6.260;2022-12-16T11:08:43;116.30;;;34.15;;
19024;SDS011;9645;51.448;6.260;2022-12-16T11:11:28;114.43;;;34.70;;
19024;SDS011;9645;51.448;6.260;2022-12-16T11:14:15;117.68;;;36.90;;
19024;SDS011;9645;51.448;6.260;2022-12-16T11:17:11;125.55;;;36.42;;
19024;SDS011;9645;51.448;6.260;2022-12-16T11:20:14;89.22;;;31.55;;
19024;SDS011;9645;51.448;6.260;2022-12-16T11:23:14;128.93;;;36.45;;
19024;SDS011;9645;51.448;6.260;2022-12-16T11:26:07;99.68;;;31.23;;
19024;SDS011;9645;51.448;6.260;2022-12-16T11:29:04;137.52;;;38.28;;
19024;SDS011;9645;51.448;6.260;2022-12-16T11:31:53;115.47;;;32.85;;
19024;SDS011;9645;51.448;6.260;2022-12-16T11:34:43;94.10;;;30.80;;
19024;SDS011;9645;51.448;6.260;2022-12-16T11:37:42;129.95;;;34.80;;
19024;SDS011;9645;51.448;6.260;2022-12-16T11:40:27;113.65;;;35.50;;
19024;SDS011;9645;51.448;6.260;2022-12-16T11:43:14;117.57;;;35.40;;
19024;SDS011;9645;51.448;6.260;2022-12-16T11:46:00;107.53;;;34.65;;
19024;SDS011;9645;51.448;6.260;2022-12-16T11:49:00;106.78;;;33.95;;
19024;SDS011;9645;51.448;6.260;2022-12-16T11:51:52;137.43;;;35.97;;
19024;SDS011;9645;51.448;6.260;2022-12-16T11:54:38;150.82;;;38.08;;
19024;SDS011;9645;51.448;6.260;2022-12-16T11:57:36;149.15;;;36.70;;
19024;SDS011;9645;51.448;6.260;2022-12-16T12:00:26;137.70;;;38.17;;
19024;SDS011;9645;51.448;6.260;2022-12-16T12:03:17;135.02;;;39.47;;
19024;SDS011;9645;51.448;6.260;2022-12-16T12:06:06;144.07;;;36.05;;
19024;SDS011;9645;51.448;6.260;2022-12-16T12:08:59;123.53;;;35.80;;
19024;SDS011;9645;51.448;6.260;2022-12-16T12:11:50;159.02;;;39.65;;
19024;SDS011;9645;51.448;6.260;2022-12-16T12:14:40;137.18;;;41.35;;
19024;SDS011;9645;51.448;6.260;2022-12-16T12:17:31;125.60;;;38.00;;
19024;SDS011;9645;51.448;6.260;2022-12-16T12:23:31;139.43;;;38.63;;
19024;SDS011;9645;51.448;6.260;2022-12-16T12:26:23;158.57;;;41.15;;
19024;SDS011;9645;51.448;6.260;2022-12-16T12:29:15;145.48;;;39.58;;
19024;SDS011;9645;51.448;6.260;2022-12-16T12:32:05;130.80;;;39.75;;
19024;SDS011;9645;51.448;6.260;2022-12-16T12:35:00;159.63;;;39.92;;
19024;SDS011;9645;51.448;6.260;2022-12-16T12:37:56;155.82;;;40.45;;
19024;SDS011;9645;51.448;6.260;2022-12-16T12:40:48;142.32;;;40.55;;
19024;SDS011;9645;51.448;6.260;2022-12-16T12:43:43;129.60;;;38.13;;
19024;SDS011;9645;51.448;6.260;2022-12-16T12:46:41;149.75;;;36.65;;
19024;SDS011;9645;51.448;6.260;2022-12-16T12:49:32;128.68;;;39.33;;
19024;SDS011;9645;51.448;6.260;2022-12-16T12:52:26;120.72;;;38.58;;
19024;SDS011;9645;51.448;6.260;2022-12-16T12:55:31;125.03;;;36.90;;
19024;SDS011;9645;51.448;6.260;2022-12-16T12:58:20;127.82;;;35.58;;
19024;SDS011;9645;51.448;6.260;2022-12-16T13:01:07;159.77;;;41.78;;
19024;SDS011;9645;51.448;6.260;2022-12-16T13:03:53;141.07;;;37.35;;
19024;SDS011;9645;51.448;6.260;2022-12-16T13:06:43;129.82;;;31.95;;
19024;SDS011;9645;51.448;6.260;2022-12-16T13:09:28;122.05;;;31.55;;
19024;SDS011;9645;51.448;6.260;2022-12-16T13:12:19;122.53;;;30.50;;
19024;SDS011;9645;51.448;6.260;2022-12-16T13:15:10;129.25;;;30.77;;
19024;SDS011;9645;51.448;6.260;2022-12-16T13:24:45;98.88;;;30.02;;
19024;SDS011;9645;51.448;6.260;2022-12-16T13:30:40;146.50;;;27.25;;
19024;SDS011;9645;51.448;6.260;2022-12-16T13:33:50;186.45;;;28.90;;
19024;SDS011;9645;51.448;6.260;2022-12-16T13:36:35;139.30;;;28.15;;
19024;SDS011;9645;51.448;6.260;2022-12-16T13:39:22;79.38;;;24.85;;
19024;SDS011;9645;51.448;6.260;2022-12-16T13:45:16;84.75;;;26.10;;
19024;SDS011;9645;51.448;6.260;2022-12-16T13:48:28;146.40;;;25.45;;
19024;SDS011;9645;51.448;6.260;2022-12-16T13:54:42;99.70;;;22.50;;
19024;SDS011;9645;51.448;6.260;2022-12-16T13:57:30;97.38;;;26.23;;
19024;SDS011;9645;51.448;6.260;2022-12-16T14:00:20;258.85;;;27.92;;
19024;SDS011;9645;51.448;6.260;2022-12-16T14:03:08;91.97;;;25.05;;
19024;SDS011;9645;51.448;6.260;2022-12-16T14:05:57;99.35;;;27.30;;
19024;SDS011;9645;51.448;6.260;2022-12-16T14:08:44;149.20;;;26.50;;
19024;SDS011;9645;51.448;6.260;2022-12-16T14:11:30;112.68;;;29.73;;
19024;SDS011;9645;51.448;6.260;2022-12-16T14:14:28;78.60;;;25.55;;
19024;SDS011;9645;51.448;6.260;2022-12-16T14:17:19;108.35;;;30.05;;
19024;SDS011;9645;51.448;6.260;2022-12-16T14:20:10;99.53;;;25.60;;
19024;SDS011;9645;51.448;6.260;2022-12-16T14:23:02;106.57;;;27.73;;
19024;SDS011;9645;51.448;6.260;2022-12-16T14:26:02;122.18;;;30.30;;
19024;SDS011;9645;51.448;6.260;2022-12-16T14:28:48;104.07;;;30.15;;
19024;SDS011;9645;51.448;6.260;2022-12-16T14:31:34;91.70;;;27.10;;
19024;SDS011;9645;51.448;6.260;2022-12-16T14:34:20;114.97;;;29.73;;
19024;SDS011;9645;51.448;6.260;2022-12-16T14:37:11;103.07;;;27.98;;
19024;SDS011;9645;51.448;6.260;2022-12-16T14:39:56;93.57;;;27.23;;
19024;SDS011;9645;51.448;6.260;2022-12-16T14:42:42;97.88;;;25.83;;
19024;SDS011;9645;51.448;6.260;2022-12-16T14:45:27;104.72;;;27.58;;
19024;SDS011;9645;51.448;6.260;2022-12-16T14:48:24;107.57;;;29.10;;
19024;SDS011;9645;51.448;6.260;2022-12-16T14:54:16;95.18;;;27.83;;
19024;SDS011;9645;51.448;6.260;2022-12-16T14:57:02;116.03;;;30.15;;
19024;SDS011;9645;51.448;6.260;2022-12-16T14:59:59;121.03;;;38.35;;
19024;SDS011;9645;51.448;6.260;2022-12-16T15:02:53;103.70;;;29.33;;
19024;SDS011;9645;51.448;6.260;2022-12-16T15:05:40;111.88;;;28.30;;
19024;SDS011;9645;51.448;6.260;2022-12-16T15:08:26;92.80;;;27.40;;
19024;SDS011;9645;51.448;6.260;2022-12-16T15:11:12;95.75;;;30.30;;
19024;SDS011;9645;51.448;6.260;2022-12-16T15:14:00;108.43;;;31.05;;
19024;SDS011;9645;51.448;6.260;2022-12-16T15:16:47;89.75;;;26.75;;
19024;SDS011;9645;51.448;6.260;2022-12-16T15:19:35;103.18;;;26.20;;
19024;SDS011;9645;51.448;6.260;2022-12-16T15:22:25;95.97;;;25.42;;
19024;SDS011;9645;51.448;6.260;2022-12-16T15:25:17;84.05;;;25.40;;
19024;SDS011;9645;51.448;6.260;2022-12-16T15:28:03;86.50;;;24.83;;
19024;SDS011;9645;51.448;6.260;2022-12-16T15:30:47;106.75;;;26.88;;
19024;SDS011;9645;51.448;6.260;2022-12-16T15:33:34;95.43;;;27.60;;
19024;SDS011;9645;51.448;6.260;2022-12-16T15:36:24;120.32;;;27.15;;
19024;SDS011;9645;51.448;6.260;2022-12-16T15:39:14;77.50;;;25.77;;
19024;SDS011;9645;51.448;6.260;2022-12-16T15:42:03;91.80;;;25.33;;
19024;SDS011;9645;51.448;6.260;2022-12-16T15:44:47;91.63;;;25.90;;
19024;SDS011;9645;51.448;6.260;2022-12-16T15:47:34;89.53;;;25.13;;
19024;SDS011;9645;51.448;6.260;2022-12-16T15:50:22;102.18;;;26.77;;
19024;SDS011;9645;51.448;6.260;2022-12-16T15:53:21;73.40;;;24.15;;
19024;SDS011;9645;51.448;6.260;2022-12-16T15:56:16;96.10;;;25.20;;
19024;SDS011;9645;51.448;6.260;2022-12-16T15:59:14;81.38;;;24.63;;
19024;SDS011;9645;51.448;6.260;2022-12-16T16:02:08;110.95;;;25.55;;
19024;SDS011;9645;51.448;6.260;2022-12-16T16:04:58;84.93;;;24.85;;
19024;SDS011;9645;51.448;6.260;2022-12-16T16:07:44;89.50;;;28.02;;
19024;SDS011;9645;51.448;6.260;2022-12-16T16:10:29;80.15;;;25.92;;
19024;SDS011;9645;51.448;6.260;2022-12-16T16:13:14;113.03;;;27.70;;
19024;SDS011;9645;51.448;6.260;2022-12-16T16:15:58;83.50;;;25.05;;
19024;SDS011;9645;51.448;6.260;2022-12-16T16:18:42;94.18;;;25.65;;
19024;SDS011;9645;51.448;6.260;2022-12-16T16:21:27;80.25;;;26.85;;
19024;SDS011;9645;51.448;6.260;2022-12-16T16:24:15;102.65;;;29.38;;
19024;SDS011;9645;51.448;6.260;2022-12-16T16:27:00;99.38;;;26.55;;
19024;SDS011;9645;51.448;6.260;2022-12-16T16:29:47;115.07;;;28.85;;